sensor_id;sensor_type;location;lat;lon;timestamp;pressure;altitude;pressure_sealevel;temperature;humidity
19005;BME280;9635;52.078;8.648;2023-02-15T00:03:37;101798.28;;;2.93;68.85
19005;BME280;9635;52.078;8.648;2023-02-15T00:08:40;101802.81;;;2.89;68.78
19005;BME280;9635;52.078;8.648;2023-02-15T00:13:44;101799.34;;;2.87;68.81
19005;BME280;9635;52.078;8.648;2023-02-15T00:18:47;101797.41;;;2.94;68.41
19005;BME280;9635;52.078;8.648;2023-02-15T00:23:50;101797.25;;;3.00;68.46
19005;BME280;9635;52.078;8.648;2023-02-15T00:28:54;101797.25;;;2.98;67.98
19005;BME280;9635;52.078;8.648;2023-02-15T00:34:01;101800.94;;;2.94;68.12
19005;BME280;9635;52.078;8.648;2023-02-15T00:39:04;101786.06;;;2.87;68.16
19005;BME280;9635;52.078;8.648;2023-02-15T00:44:08;101783.50;;;2.84;68.17
19005;BME280;9635;52.078;8.648;2023-02-15T00:49:11;101780.28;;;2.71;68.31
19005;BME280;9635;52.078;8.648;2023-02-15T00:54:14;101781.84;;;2.44;69.09
19005;BME280;9635;52.078;8.648;2023-02-15T00:59:18;101774.59;;;2.51;69.22
19005;BME280;9635;52.078;8.648;2023-02-15T01:04:22;101775.41;;;2.54;68.93
19005;BME280;9635;52.078;8.648;2023-02-15T01:09:24;101779.31;;;2.39;69.10
19005;BME280;9635;52.078;8.648;2023-02-15T01:14:29;101775.50;;;2.50;68.87
19005;BME280;9635;52.078;8.648;2023-02-15T01:19:32;101773.72;;;2.50;68.72
19005;BME280;9635;52.078;8.648;2023-02-15T01:24:35;101765.84;;;2.47;68.65
19005;BME280;9635;52.078;8.648;2023-02-15T01:29:40;101758.25;;;2.32;68.92
19005;BME280;9635;52.078;8.648;2023-02-15T01:34:42;101761.44;;;2.10;69.48
19005;BME280;9635;52.078;8.648;2023-02-15T01:39:47;101756.22;;;2.07;69.62
19005;BME280;9635;52.078;8.648;2023-02-15T01:44:55;101749.03;;;2.11;69.64
19005;BME280;9635;52.078;8.648;2023-02-15T01:50:03;101749.34;;;1.99;69.86
19005;BME280;9635;52.078;8.648;2023-02-15T01:55:09;101751.00;;;2.03;69.76
19005;BME280;9635;52.078;8.648;2023-02-15T02:00:16;101742.41;;;1.93;70.03
19005;BME280;9635;52.078;8.648;2023-02-15T02:05:21;101729.31;;;1.87;69.91
19005;BME280;9635;52.078;8.648;2023-02-15T02:10:25;101737.69;;;1.68;70.33
19005;BME280;9635;52.078;8.648;2023-02-15T02:15:39;101739.41;;;1.69;70.52
19005;BME280;9635;52.078;8.648;2023-02-15T02:26:40;101733.88;;;1.80;70.37
19005;BME280;9635;52.078;8.648;2023-02-15T02:32:08;101722.38;;;1.81;70.19
19005;BME280;9635;52.078;8.648;2023-02-15T02:37:24;101724.34;;;1.71;70.16
19005;BME280;9635;52.078;8.648;2023-02-15T02:42:35;101712.97;;;1.68;70.28
19005;BME280;9635;52.078;8.648;2023-02-15T02:47:44;101710.47;;;1.60;70.36
19005;BME280;9635;52.078;8.648;2023-02-15T02:52:51;101708.09;;;1.48;70.35
19005;BME280;9635;52.078;8.648;2023-02-15T02:57:56;101709.94;;;1.44;70.57
19005;BME280;9635;52.078;8.648;2023-02-15T03:03:02;101700.91;;;1.53;70.58
19005;BME280;9635;52.078;8.648;2023-02-15T03:08:08;101695.81;;;1.45;70.53
19005;BME280;9635;52.078;8.648;2023-02-15T03:13:12;101700.34;;;1.40;70.60
19005;BME280;9635;52.078;8.648;2023-02-15T03:18:16;101688.44;;;1.19;71.21
19005;BME280;9635;52.078;8.648;2023-02-15T03:23:24;101693.16;;;1.05;71.85
19005;BME280;9635;52.078;8.648;2023-02-15T03:28:33;101693.44;;;0.91;72.27
19005;BME280;9635;52.078;8.648;2023-02-15T03:33:40;101690.78;;;0.91;72.32
19005;BME280;9635;52.078;8.648;2023-02-15T03:38:51;101686.28;;;0.95;72.47
19005;BME280;9635;52.078;8.648;2023-02-15T03:43:58;101680.25;;;0.88;72.07
19005;BME280;9635;52.078;8.648;2023-02-15T03:49:05;101683.78;;;0.89;72.17
19005;BME280;9635;52.078;8.648;2023-02-15T03:54:13;101687.69;;;0.68;72.71
19005;BME280;9635;52.078;8.648;2023-02-15T03:59:37;101679.22;;;0.50;73.43
19005;BME280;9635;52.078;8.648;2023-02-15T04:04:57;101681.16;;;0.41;74.40
19005;BME280;9635;52.078;8.648;2023-02-15T04:10:01;101676.09;;;0.27;74.67
19005;BME280;9635;52.078;8.648;2023-02-15T04:15:21;101669.09;;;0.26;75.35
19005;BME280;9635;52.078;8.648;2023-02-15T04:20:43;101668.25;;;0.24;75.47
19005;BME280;9635;52.078;8.648;2023-02-15T04:26:05;101661.41;;;0.12;75.15
19005;BME280;9635;52.078;8.648;2023-02-15T04:31:08;101659.63;;;0.12;75.47
19005;BME280;9635;52.078;8.648;2023-02-15T04:36:11;101669.53;;;-0.00;76.08
19005;BME280;9635;52.078;8.648;2023-02-15T04:41:15;101670.25;;;0.09;75.89
19005;BME280;9635;52.078;8.648;2023-02-15T04:46:18;101656.63;;;0.32;75.73
19005;BME280;9635;52.078;8.648;2023-02-15T04:51:21;101659.22;;;0.35;75.29
19005;BME280;9635;52.078;8.648;2023-02-15T04:56:25;101640.06;;;0.23;75.30
19005;BME280;9635;52.078;8.648;2023-02-15T05:01:28;101640.50;;;-0.03;76.49
19005;BME280;9635;52.078;8.648;2023-02-15T05:06:32;101637.56;;;0.16;76.71
19005;BME280;9635;52.078;8.648;2023-02-15T05:11:36;101624.59;;;0.01;76.82
19005;BME280;9635;52.078;8.648;2023-02-15T05:16:39;101624.34;;;0.15;76.91
19005;BME280;9635;52.078;8.648;2023-02-15T05:21:42;101619.75;;;0.25;76.30
19005;BME280;9635;52.078;8.648;2023-02-15T05:26:46;101638.25;;;0.26;76.56
19005;BME280;9635;52.078;8.648;2023-02-15T05:32:06;101638.97;;;0.33;76.05
19005;BME280;9635;52.078;8.648;2023-02-15T05:37:09;101647.63;;;0.43;75.61
19005;BME280;9635;52.078;8.648;2023-02-15T05:42:13;101642.06;;;0.10;76.73
19005;BME280;9635;52.078;8.648;2023-02-15T05:47:16;101632.41;;;0.07;76.72
19005;BME280;9635;52.078;8.648;2023-02-15T05:52:19;101622.13;;;-0.08;77.08
19005;BME280;9635;52.078;8.648;2023-02-15T05:57:23;101623.66;;;0.04;76.98
19005;BME280;9635;52.078;8.648;2023-02-15T06:02:26;101632.16;;;0.23;76.71
19005;BME280;9635;52.078;8.648;2023-02-15T06:07:29;101632.09;;;0.24;76.15
19005;BME280;9635;52.078;8.648;2023-02-15T06:12:33;101630.44;;;0.19;76.34
19005;BME280;9635;52.078;8.648;2023-02-15T06:17:36;101614.22;;;-0.11;76.90
19005;BME280;9635;52.078;8.648;2023-02-15T06:22:38;101621.09;;;-0.01;77.23
19005;BME280;9635;52.078;8.648;2023-02-15T06:27:43;101628.81;;;0.11;76.70
19005;BME280;9635;52.078;8.648;2023-02-15T06:32:46;101641.00;;;0.20;77.08
19005;BME280;9635;52.078;8.648;2023-02-15T06:37:49;101634.78;;;0.23;76.44
19005;BME280;9635;52.078;8.648;2023-02-15T06:42:53;101632.97;;;0.25;76.42
19005;BME280;9635;52.078;8.648;2023-02-15T06:47:56;101633.25;;;0.09;76.49
19005;BME280;9635;52.078;8.648;2023-02-15T06:52:58;101628.97;;;0.02;76.70
19005;BME280;9635;52.078;8.648;2023-02-15T06:58:03;101619.81;;;0.22;76.47
19005;BME280;9635;52.078;8.648;2023-02-15T07:03:05;101625.69;;;0.37;76.19
19005;BME280;9635;52.078;8.648;2023-02-15T07:08:08;101629.06;;;0.46;75.87
19005;BME280;9635;52.078;8.648;2023-02-15T07:13:12;101618.69;;;0.36;75.67
19005;BME280;9635;52.078;8.648;2023-02-15T07:18:15;101619.41;;;0.43;75.55
19005;BME280;9635;52.078;8.648;2023-02-15T07:23:18;101617.81;;;0.36;75.59
19005;BME280;9635;52.078;8.648;2023-02-15T07:28:22;101625.47;;;0.50;75.82
19005;BME280;9635;52.078;8.648;2023-02-15T07:33:25;101624.81;;;0.82;77.44
19005;BME280;9635;52.078;8.648;2023-02-15T07:38:30;101615.84;;;1.67;76.28
19005;BME280;9635;52.078;8.648;2023-02-15T07:43:37;101607.53;;;1.45;72.82
19005;BME280;9635;52.078;8.648;2023-02-15T07:48:42;101612.75;;;1.09;72.89
19005;BME280;9635;52.078;8.648;2023-02-15T07:53:45;101602.41;;;0.98;73.51
19005;BME280;9635;52.078;8.648;2023-02-15T07:58:50;101599.34;;;1.18;73.46
19005;BME280;9635;52.078;8.648;2023-02-15T08:03:57;101586.03;;;1.21;73.06
19005;BME280;9635;52.078;8.648;2023-02-15T08:09:00;101587.03;;;1.16;73.32
19005;BME280;9635;52.078;8.648;2023-02-15T08:14:07;101590.38;;;1.24;73.23
19005;BME280;9635;52.078;8.648;2023-02-15T08:19:13;101588.09;;;1.46;72.73
19005;BME280;9635;52.078;8.648;2023-02-15T08:24:17;101578.63;;;1.36;72.15
19005;BME280;9635;52.078;8.648;2023-02-15T08:29:24;101568.22;;;1.64;73.04
19005;BME280;9635;52.078;8.648;2023-02-15T08:34:29;101556.56;;;2.05;70.79
19005;BME280;9635;52.078;8.648;2023-02-15T08:39:32;101564.19;;;2.49;69.45
19005;BME280;9635;52.078;8.648;2023-02-15T08:44:37;101548.38;;;3.35;67.56
19005;BME280;9635;52.078;8.648;2023-02-15T08:49:40;101548.19;;;3.92;64.87
19005;BME280;9635;52.078;8.648;2023-02-15T08:54:42;101547.72;;;4.30;63.33
19005;BME280;9635;52.078;8.648;2023-02-15T08:59:47;101544.16;;;4.06;63.50
19005;BME280;9635;52.078;8.648;2023-02-15T09:04:52;101541.59;;;4.53;62.04
19005;BME280;9635;52.078;8.648;2023-02-15T09:09:55;101539.81;;;4.52;62.15
19005;BME280;9635;52.078;8.648;2023-02-15T09:14:59;101537.00;;;5.47;59.47
19005;BME280;9635;52.078;8.648;2023-02-15T09:20:02;101544.03;;;5.48;58.65
19005;BME280;9635;52.078;8.648;2023-02-15T09:25:05;101538.31;;;5.80;57.93
19005;BME280;9635;52.078;8.648;2023-02-15T09:30:11;101529.84;;;5.90;57.67
19005;BME280;9635;52.078;8.648;2023-02-15T09:35:14;101538.31;;;6.00;57.56
19005;BME280;9635;52.078;8.648;2023-02-15T09:40:17;101526.97;;;6.55;57.11
19005;BME280;9635;52.078;8.648;2023-02-15T09:45:28;101526.50;;;6.26;56.85
19005;BME280;9635;52.078;8.648;2023-02-15T09:50:39;101525.53;;;6.48;56.92
19005;BME280;9635;52.078;8.648;2023-02-15T09:55:52;101513.06;;;6.86;56.06
19005;BME280;9635;52.078;8.648;2023-02-15T10:01:04;101505.25;;;6.62;56.75
19005;BME280;9635;52.078;8.648;2023-02-15T10:06:22;101502.72;;;6.78;55.88
19005;BME280;9635;52.078;8.648;2023-02-15T10:11:36;101519.94;;;6.92;56.16
19005;BME280;9635;52.078;8.648;2023-02-15T10:16:49;101507.56;;;7.44;54.61
19005;BME280;9635;52.078;8.648;2023-02-15T10:22:03;101511.47;;;7.37;54.34
19005;BME280;9635;52.078;8.648;2023-02-15T10:27:12;101509.94;;;8.36;52.54
19005;BME280;9635;52.078;8.648;2023-02-15T10:32:22;101509.47;;;8.94;51.34
19005;BME280;9635;52.078;8.648;2023-02-15T10:37:39;101504.59;;;9.01;50.61
19005;BME280;9635;52.078;8.648;2023-02-15T10:42:58;101501.50;;;9.09;50.59
19005;BME280;9635;52.078;8.648;2023-02-15T10:48:22;101502.44;;;9.54;50.80
19005;BME280;9635;52.078;8.648;2023-02-15T10:53:40;101491.81;;;9.52;50.50
19005;BME280;9635;52.078;8.648;2023-02-15T10:59:01;101480.66;;;9.74;50.50
19005;BME280;9635;52.078;8.648;2023-02-15T11:04:26;101467.91;;;10.08;49.12
19005;BME280;9635;52.078;8.648;2023-02-15T11:09:38;101467.34;;;11.28;46.94
19005;BME280;9635;52.078;8.648;2023-02-15T11:14:45;101477.47;;;11.78;45.15
19005;BME280;9635;52.078;8.648;2023-02-15T11:19:58;101462.44;;;13.00;43.46
19005;BME280;9635;52.078;8.648;2023-02-15T11:25:14;101460.75;;;13.93;42.60
19005;BME280;9635;52.078;8.648;2023-02-15T11:30:21;101451.69;;;13.35;42.72
19005;BME280;9635;52.078;8.648;2023-02-15T11:35:29;101451.75;;;13.82;42.65
19005;BME280;9635;52.078;8.648;2023-02-15T11:40:35;101448.94;;;13.83;41.74
19005;BME280;9635;52.078;8.648;2023-02-15T11:45:42;101453.66;;;14.37;41.09
19005;BME280;9635;52.078;8.648;2023-02-15T11:50:48;101454.41;;;14.62;40.25
19005;BME280;9635;52.078;8.648;2023-02-15T11:55:51;101450.22;;;14.58;40.18
19005;BME280;9635;52.078;8.648;2023-02-15T12:00:57;101437.50;;;14.92;40.11
19005;BME280;9635;52.078;8.648;2023-02-15T12:06:11;101423.84;;;15.37;39.42
19005;BME280;9635;52.078;8.648;2023-02-15T12:11:19;101418.94;;;15.52;39.19
19005;BME280;9635;52.078;8.648;2023-02-15T12:16:25;101420.41;;;15.77;39.14
19005;BME280;9635;52.078;8.648;2023-02-15T12:21:32;101414.38;;;15.74;39.67
19005;BME280;9635;52.078;8.648;2023-02-15T12:26:36;101407.69;;;15.47;39.39
19005;BME280;9635;52.078;8.648;2023-02-15T12:31:41;101398.19;;;14.77;40.99
19005;BME280;9635;52.078;8.648;2023-02-15T12:36:48;101400.59;;;14.14;42.37
19005;BME280;9635;52.078;8.648;2023-02-15T12:42:02;101393.38;;;13.45;43.56
19005;BME280;9635;52.078;8.648;2023-02-15T12:47:10;101386.00;;;13.12;44.56
19005;BME280;9635;52.078;8.648;2023-02-15T12:52:25;101377.97;;;13.35;43.97
19005;BME280;9635;52.078;8.648;2023-02-15T12:57:29;101364.50;;;12.99;44.88
19005;BME280;9635;52.078;8.648;2023-02-15T13:02:40;101359.56;;;12.45;46.77
19005;BME280;9635;52.078;8.648;2023-02-15T13:07:50;101351.94;;;13.11;45.64
19005;BME280;9635;52.078;8.648;2023-02-15T13:12:55;101345.66;;;13.46;45.01
19005;BME280;9635;52.078;8.648;2023-02-15T13:17:59;101343.47;;;13.74;44.46
19005;BME280;9635;52.078;8.648;2023-02-15T13:23:20;101342.38;;;14.21;43.55
19005;BME280;9635;52.078;8.648;2023-02-15T13:28:31;101336.28;;;14.63;41.79
19005;BME280;9635;52.078;8.648;2023-02-15T13:33:37;101323.81;;;14.16;43.37
19005;BME280;9635;52.078;8.648;2023-02-15T13:38:46;101328.13;;;14.19;43.68
19005;BME280;9635;52.078;8.648;2023-02-15T13:43:59;101321.00;;;14.07;43.47
19005;BME280;9635;52.078;8.648;2023-02-15T13:49:17;101313.66;;;13.75;43.90
19005;BME280;9635;52.078;8.648;2023-02-15T13:59:59;101309.72;;;13.79;44.20
19005;BME280;9635;52.078;8.648;2023-02-15T14:05:45;101295.84;;;13.84;44.68
19005;BME280;9635;52.078;8.648;2023-02-15T14:10:58;101297.06;;;13.57;44.33
19005;BME280;9635;52.078;8.648;2023-02-15T14:16:07;101299.91;;;13.56;44.88
19005;BME280;9635;52.078;8.648;2023-02-15T14:21:16;101285.28;;;13.36;45.84
19005;BME280;9635;52.078;8.648;2023-02-15T14:26:29;101268.44;;;13.32;45.50
19005;BME280;9635;52.078;8.648;2023-02-15T14:31:40;101269.38;;;13.55;45.93
19005;BME280;9635;52.078;8.648;2023-02-15T14:36:44;101270.31;;;13.77;45.12
19005;BME280;9635;52.078;8.648;2023-02-15T14:41:52;101269.00;;;13.82;45.31
19005;BME280;9635;52.078;8.648;2023-02-15T14:46:59;101281.75;;;13.69;45.41
19005;BME280;9635;52.078;8.648;2023-02-15T14:52:05;101272.81;;;13.80;45.39
19005;BME280;9635;52.078;8.648;2023-02-15T14:57:25;101274.91;;;13.07;46.17
19005;BME280;9635;52.078;8.648;2023-02-15T15:02:40;101267.91;;;12.69;47.45
19005;BME280;9635;52.078;8.648;2023-02-15T15:07:46;101266.59;;;12.27;48.47
19005;BME280;9635;52.078;8.648;2023-02-15T15:12:52;101269.72;;;11.97;49.19
19005;BME280;9635;52.078;8.648;2023-02-15T15:18:00;101258.09;;;11.96;50.05
19005;BME280;9635;52.078;8.648;2023-02-15T15:28:58;101255.25;;;12.58;49.13
19005;BME280;9635;52.078;8.648;2023-02-15T15:34:33;101247.44;;;12.67;48.84
19005;BME280;9635;52.078;8.648;2023-02-15T15:45:49;101248.28;;;11.20;51.59
19005;BME280;9635;52.078;8.648;2023-02-15T15:51:01;101249.31;;;10.52;53.12
19005;BME280;9635;52.078;8.648;2023-02-15T15:56:06;101240.00;;;10.03;54.67
19005;BME280;9635;52.078;8.648;2023-02-15T16:01:13;101236.28;;;9.77;55.36
19005;BME280;9635;52.078;8.648;2023-02-15T16:06:29;101233.34;;;9.53;55.98
19005;BME280;9635;52.078;8.648;2023-02-15T16:11:32;101238.34;;;9.16;56.79
19005;BME280;9635;52.078;8.648;2023-02-15T16:16:36;101234.81;;;8.86;57.71
19005;BME280;9635;52.078;8.648;2023-02-15T16:21:39;101237.69;;;8.52;58.45
19005;BME280;9635;52.078;8.648;2023-02-15T16:26:59;101244.28;;;8.31;58.96
19005;BME280;9635;52.078;8.648;2023-02-15T16:32:20;101252.25;;;8.16;59.25
19005;BME280;9635;52.078;8.648;2023-02-15T16:37:24;101245.97;;;8.02;59.84
19005;BME280;9635;52.078;8.648;2023-02-15T16:42:28;101235.34;;;7.68;60.78
19005;BME280;9635;52.078;8.648;2023-02-15T16:47:36;101245.56;;;7.44;61.73
19005;BME280;9635;52.078;8.648;2023-02-15T16:52:43;101242.03;;;7.44;61.59
19005;BME280;9635;52.078;8.648;2023-02-15T16:57:46;101237.50;;;7.28;62.09
19005;BME280;9635;52.078;8.648;2023-02-15T17:02:58;101245.00;;;7.04;62.48
19005;BME280;9635;52.078;8.648;2023-02-15T17:08:13;101236.94;;;7.06;62.58
19005;BME280;9635;52.078;8.648;2023-02-15T17:13:17;101230.50;;;6.93;62.87
19005;BME280;9635;52.078;8.648;2023-02-15T17:18:22;101248.34;;;6.92;62.81
19005;BME280;9635;52.078;8.648;2023-02-15T17:23:28;101261.19;;;6.84;62.58
19005;BME280;9635;52.078;8.648;2023-02-15T17:28:32;101257.94;;;6.77;63.16
19005;BME280;9635;52.078;8.648;2023-02-15T17:33:37;101255.69;;;6.70;63.42
19005;BME280;9635;52.078;8.648;2023-02-15T17:39:00;101258.75;;;6.62;63.27
19005;BME280;9635;52.078;8.648;2023-02-15T17:44:04;101267.53;;;6.47;63.70
19005;BME280;9635;52.078;8.648;2023-02-15T17:49:15;101255.19;;;6.44;63.70
19005;BME280;9635;52.078;8.648;2023-02-15T17:54:25;101258.84;;;6.24;64.02
19005;BME280;9635;52.078;8.648;2023-02-15T17:59:45;101249.28;;;6.20;64.31
19005;BME280;9635;52.078;8.648;2023-02-15T18:05:14;101255.91;;;6.11;64.41
19005;BME280;9635;52.078;8.648;2023-02-15T18:10:35;101259.53;;;5.91;64.94
19005;BME280;9635;52.078;8.648;2023-02-15T18:15:55;101243.63;;;5.90;64.88
19005;BME280;9635;52.078;8.648;2023-02-15T18:21:00;101244.78;;;5.84;64.83
19005;BME280;9635;52.078;8.648;2023-02-15T18:26:03;101247.22;;;5.70;65.04
19005;BME280;9635;52.078;8.648;2023-02-15T18:31:07;101254.06;;;5.76;64.69
19005;BME280;9635;52.078;8.648;2023-02-15T18:36:14;101249.69;;;5.75;64.64
19005;BME280;9635;52.078;8.648;2023-02-15T18:41:20;101240.13;;;5.70;64.70
19005;BME280;9635;52.078;8.648;2023-02-15T18:46:26;101234.69;;;5.53;64.74
19005;BME280;9635;52.078;8.648;2023-02-15T18:51:30;101251.03;;;5.45;65.22
19005;BME280;9635;52.078;8.648;2023-02-15T18:56:36;101234.31;;;5.42;65.23
19005;BME280;9635;52.078;8.648;2023-02-15T19:01:38;101242.38;;;5.21;65.50
19005;BME280;9635;52.078;8.648;2023-02-15T19:06:46;101245.91;;;5.01;66.75
19005;BME280;9635;52.078;8.648;2023-02-15T19:11:50;101243.47;;;4.95;67.08
19005;BME280;9635;52.078;8.648;2023-02-15T19:16:54;101244.13;;;4.80;67.56
19005;BME280;9635;52.078;8.648;2023-02-15T19:22:00;101229.19;;;4.77;67.31
19005;BME280;9635;52.078;8.648;2023-02-15T19:27:05;101234.97;;;4.67;67.64
19005;BME280;9635;52.078;8.648;2023-02-15T19:32:08;101236.16;;;4.59;68.05
19005;BME280;9635;52.078;8.648;2023-02-15T19:37:22;101252.94;;;4.61;67.78
19005;BME280;9635;52.078;8.648;2023-02-15T19:42:27;101254.59;;;4.64;67.75
19005;BME280;9635;52.078;8.648;2023-02-15T19:47:32;101256.63;;;4.57;67.58
19005;BME280;9635;52.078;8.648;2023-02-15T19:52:36;101253.44;;;4.49;67.66
19005;BME280;9635;52.078;8.648;2023-02-15T19:57:39;101248.63;;;4.37;67.95
19005;BME280;9635;52.078;8.648;2023-02-15T20:02:42;101265.34;;;4.18;68.51
19005;BME280;9635;52.078;8.648;2023-02-15T20:07:48;101268.81;;;4.21;68.40
19005;BME280;9635;52.078;8.648;2023-02-15T20:12:51;101270.41;;;4.25;68.10
19005;BME280;9635;52.078;8.648;2023-02-15T20:17:56;101276.53;;;4.27;68.00
19005;BME280;9635;52.078;8.648;2023-02-15T20:23:01;101282.47;;;4.11;68.07
19005;BME280;9635;52.078;8.648;2023-02-15T20:28:04;101288.09;;;4.04;68.34
19005;BME280;9635;52.078;8.648;2023-02-15T20:33:07;101279.25;;;4.03;68.21
19005;BME280;9635;52.078;8.648;2023-02-15T20:38:17;101280.22;;;3.79;68.95
19005;BME280;9635;52.078;8.648;2023-02-15T20:43:21;101277.97;;;3.68;68.97
19005;BME280;9635;52.078;8.648;2023-02-15T20:48:24;101280.78;;;3.63;69.22
19005;BME280;9635;52.078;8.648;2023-02-15T20:53:28;101263.22;;;3.59;69.03
19005;BME280;9635;52.078;8.648;2023-02-15T20:58:31;101274.47;;;3.42;69.62
19005;BME280;9635;52.078;8.648;2023-02-15T21:03:34;101265.25;;;3.53;69.10
19005;BME280;9635;52.078;8.648;2023-02-15T21:08:38;101269.13;;;3.44;69.33
19005;BME280;9635;52.078;8.648;2023-02-15T21:13:41;101274.19;;;3.26;69.58
19005;BME280;9635;52.078;8.648;2023-02-15T21:18:44;101284.88;;;3.25;69.49
19005;BME280;9635;52.078;8.648;2023-02-15T21:23:49;101283.94;;;3.26;69.09
19005;BME280;9635;52.078;8.648;2023-02-15T21:28:53;101283.34;;;2.93;69.99
19005;BME280;9635;52.078;8.648;2023-02-15T21:33:57;101290.81;;;3.06;69.67
19005;BME280;9635;52.078;8.648;2023-02-15T21:39:01;101273.59;;;2.93;69.91
19005;BME280;9635;52.078;8.648;2023-02-15T21:44:14;101288.53;;;2.96;69.87
19005;BME280;9635;52.078;8.648;2023-02-15T21:55:13;101297.41;;;2.96;69.37
19005;BME280;9635;52.078;8.648;2023-02-15T22:00:18;101300.91;;;2.97;69.29
19005;BME280;9635;52.078;8.648;2023-02-15T22:05:24;101299.44;;;2.88;69.54
19005;BME280;9635;52.078;8.648;2023-02-15T22:10:31;101295.75;;;2.92;69.31
19005;BME280;9635;52.078;8.648;2023-02-15T22:15:35;101291.53;;;2.87;69.30
19005;BME280;9635;52.078;8.648;2023-02-15T22:20:38;101288.88;;;2.87;69.34
19005;BME280;9635;52.078;8.648;2023-02-15T22:25:44;101292.66;;;2.79;69.29
19005;BME280;9635;52.078;8.648;2023-02-15T22:30:47;101283.31;;;2.68;69.64
19005;BME280;9635;52.078;8.648;2023-02-15T22:35:50;101287.25;;;2.56;69.93
19005;BME280;9635;52.078;8.648;2023-02-15T22:40:57;101299.72;;;2.54;70.09
19005;BME280;9635;52.078;8.648;2023-02-15T22:46:06;101291.75;;;2.52;70.11
19005;BME280;9635;52.078;8.648;2023-02-15T22:51:11;101290.22;;;2.45;70.53
19005;BME280;9635;52.078;8.648;2023-02-15T22:56:19;101288.44;;;2.46;70.46
19005;BME280;9635;52.078;8.648;2023-02-15T23:01:28;101291.22;;;2.41;70.28
19005;BME280;9635;52.078;8.648;2023-02-15T23:06:32;101290.78;;;2.28;70.55
19005;BME280;9635;52.078;8.648;2023-02-15T23:11:37;101288.16;;;2.27;70.67
19005;BME280;9635;52.078;8.648;2023-02-15T23:16:40;101287.31;;;2.26;70.79
19005;BME280;9635;52.078;8.648;2023-02-15T23:21:44;101271.66;;;2.18;71.05
19005;BME280;9635;52.078;8.648;2023-02-15T23:26:49;101276.22;;;2.13;70.77
19005;BME280;9635;52.078;8.648;2023-02-15T23:31:52;101278.06;;;2.11;70.69
19005;BME280;9635;52.078;8.648;2023-02-15T23:36:55;101284.16;;;2.13;70.88
19005;BME280;9635;52.078;8.648;2023-02-15T23:42:01;101276.94;;;2.18;70.62
19005;BME280;9635;52.078;8.648;2023-02-15T23:47:05;101287.63;;;2.17;70.49
19005;BME280;9635;52.078;8.648;2023-02-15T23:52:09;101288.41;;;2.19;70.54
19005;BME280;9635;52.078;8.648;2023-02-15T23:57:14;101279.75;;;2.14;70.53
